Terminal Aerodrome Forecast
Issued by NWS

Home | Current Version | Previous Version | Text Only | Print | Product List | Glossary On
Versions: 1 2 3 4 5 6 7 8 9 10 11 12 13 14 15 16 17
000
FTUS41 KCLE 252342
TAFFDY
TAF
KFDY 252342Z 2600/2624 26010KT P6SM SCT040
     FM260300 26005KT P6SM SCT100
     FM261000 30003KT P6SM SCT250
     FM261500 VRB05KT P6SM SCT250=

USA.gov is the U.S. government's official web portal to all federal, state and local government web resources and services.